createdAt,value
2023-04-26T00:01:05.597Z,5.25
2023-04-26T00:03:34.563Z,5.26
2023-04-26T00:06:05.545Z,5.20
2023-04-26T00:08:33.067Z,5.05
2023-04-26T00:11:00.758Z,4.97
2023-04-26T00:13:28.641Z,4.90
2023-04-26T00:15:56.178Z,4.90
2023-04-26T00:18:23.705Z,4.91
2023-04-26T00:20:52.659Z,4.91
2023-04-26T00:23:20.218Z,4.98
2023-04-26T00:25:47.712Z,5.03
2023-04-26T00:28:15.858Z,5.05
2023-04-26T00:30:47.685Z,4.99
2023-04-26T00:33:15.386Z,5.07
2023-04-26T00:35:43.237Z,5.04
2023-04-26T00:38:12.051Z,5.13
2023-04-26T00:40:39.549Z,5.28
2023-04-26T00:43:07.079Z,5.26
2023-04-26T00:45:35.511Z,5.28
2023-04-26T00:48:04.087Z,5.37
2023-04-26T00:50:32.365Z,5.46
2023-04-26T00:53:00.108Z,5.48
2023-04-26T00:55:28.989Z,5.48
2023-04-26T00:57:56.661Z,5.44
2023-04-26T01:00:24.323Z,5.50
2023-04-26T01:02:52.197Z,5.34
2023-04-26T01:05:20.661Z,5.39
2023-04-26T01:07:48.466Z,5.08
2023-04-26T01:10:16.327Z,4.95
2023-04-26T01:12:45.249Z,5.14
2023-04-26T01:15:12.872Z,5.24
2023-04-26T01:17:40.575Z,5.22
2023-04-26T01:20:10.441Z,5.13
2023-04-26T01:22:39.321Z,5.15
2023-04-26T01:25:09.004Z,5.28
2023-04-26T01:27:36.893Z,5.21
2023-04-26T01:30:04.645Z,5.15
2023-04-26T01:32:32.182Z,5.17
2023-04-26T01:35:00.647Z,5.12
2023-04-26T01:37:28.220Z,5.04
2023-04-26T01:39:57.030Z,4.97
2023-04-26T01:42:24.526Z,4.92
2023-04-26T01:44:52.025Z,4.93
2023-04-26T01:47:19.570Z,4.96
2023-04-26T01:49:47.134Z,4.75
2023-04-26T01:52:14.665Z,4.86
2023-04-26T01:54:42.178Z,4.86
2023-04-26T01:57:11.036Z,4.86
2023-04-26T01:59:38.579Z,5.03
2023-04-26T02:02:06.868Z,5.08
2023-04-26T02:04:34.561Z,4.85
2023-04-26T02:07:02.135Z,4.68
2023-04-26T02:09:29.598Z,4.60
2023-04-26T02:11:57.274Z,4.59
2023-04-26T02:14:28.207Z,4.56
2023-04-26T02:16:57.069Z,4.59
2023-04-26T02:19:24.696Z,4.37
2023-04-26T02:21:53.690Z,4.45
2023-04-26T02:24:21.596Z,4.39
2023-04-26T02:26:49.113Z,4.48
2023-04-26T02:29:16.629Z,4.45
2023-04-26T02:31:45.546Z,4.57
2023-04-26T02:34:13.315Z,4.60
2023-04-26T02:36:41.077Z,4.57
2023-04-26T02:39:08.766Z,4.41
2023-04-26T02:41:36.920Z,4.21
2023-04-26T02:44:04.533Z,4.28
2023-04-26T02:46:32.944Z,4.35
2023-04-26T02:49:02.135Z,4.31
2023-04-26T02:51:29.718Z,4.27
2023-04-26T02:53:57.288Z,4.45
2023-04-26T02:56:25.546Z,4.29
2023-04-26T02:58:55.360Z,4.30
2023-04-26T03:01:22.999Z,4.27
2023-04-26T03:03:50.985Z,4.33
2023-04-26T03:06:19.913Z,4.25
2023-04-26T03:08:47.441Z,4.05
2023-04-26T03:11:14.933Z,4.27
2023-04-26T03:13:42.772Z,4.28
2023-04-26T03:16:11.088Z,3.93
2023-04-26T03:18:38.617Z,3.89
2023-04-26T03:21:07.657Z,3.87
2023-04-26T03:23:37.108Z,3.91
2023-04-26T03:26:05.356Z,3.95
2023-04-26T03:28:32.886Z,3.80
2023-04-26T03:31:00.747Z,3.80
2023-04-26T03:33:29.234Z,3.79
2023-04-26T03:35:56.838Z,3.91
2023-04-26T03:38:24.980Z,3.69
2023-04-26T03:40:53.967Z,3.45
2023-04-26T03:43:21.692Z,3.34
2023-04-26T03:45:50.816Z,3.49
2023-04-26T03:48:18.334Z,3.40
2023-04-26T03:50:46.635Z,3.50
2023-04-26T03:53:14.134Z,3.45
2023-04-26T03:55:41.665Z,3.35
2023-04-26T03:58:11.421Z,3.37
2023-04-26T04:00:39.272Z,3.46
2023-04-26T04:03:07.853Z,3.54
2023-04-26T04:05:35.635Z,3.66
2023-04-26T04:08:04.264Z,3.41
2023-04-26T04:10:31.934Z,3.41
2023-04-26T04:13:00.099Z,3.31
2023-04-26T04:15:29.099Z,3.44
2023-04-26T04:17:56.793Z,3.41
2023-04-26T04:20:24.375Z,3.42
2023-04-26T04:22:55.276Z,3.40
2023-04-26T04:25:23.012Z,3.28
2023-04-26T04:27:51.905Z,3.26
2023-04-26T04:30:19.457Z,3.40
2023-04-26T04:32:48.315Z,3.33
2023-04-26T04:35:17.744Z,3.27
2023-04-26T04:37:45.523Z,3.14
2023-04-26T04:40:14.066Z,3.07
2023-04-26T04:42:46.646Z,3.06
2023-04-26T04:45:15.789Z,3.09
2023-04-26T04:47:44.003Z,3.16
2023-04-26T04:50:12.980Z,3.09
2023-04-26T04:52:40.893Z,3.06
2023-04-26T04:55:08.918Z,3.10
2023-04-26T04:57:39.326Z,3.09
2023-04-26T05:00:10.381Z,3.10
2023-04-26T05:02:43.885Z,3.08
2023-04-26T05:05:13.270Z,3.14
2023-04-26T05:07:41.572Z,3.26
2023-04-26T05:10:10.188Z,3.30
2023-04-26T05:12:38.100Z,3.38
2023-04-26T05:15:06.683Z,3.39
2023-04-26T05:17:34.967Z,3.41
2023-04-26T05:20:14.752Z,3.38
2023-04-26T05:22:42.483Z,3.38
2023-04-26T05:25:11.274Z,3.39
2023-04-26T05:27:39.878Z,3.43
2023-04-26T05:30:21.564Z,3.53
2023-04-26T05:33:15.320Z,3.59
2023-04-26T05:35:54.098Z,3.73
2023-04-26T05:38:22.856Z,3.67
2023-04-26T05:40:50.388Z,3.72
2023-04-26T05:43:18.443Z,3.84
2023-04-26T05:45:51.983Z,3.92
2023-04-26T05:48:21.238Z,3.98
2023-04-26T05:50:48.749Z,3.98
2023-04-26T05:53:17.708Z,4.05
2023-04-26T05:55:45.311Z,4.13
2023-04-26T05:58:13.104Z,4.16
2023-04-26T06:00:42.536Z,4.02
2023-04-26T06:03:10.883Z,4.27
2023-04-26T06:05:39.266Z,4.32
2023-04-26T06:08:07.045Z,4.30
2023-04-26T06:10:38.379Z,4.56
2023-04-26T06:13:07.083Z,4.40
2023-04-26T06:15:37.349Z,4.55
2023-04-26T06:18:05.719Z,4.63
2023-04-26T06:20:33.290Z,4.72
2023-04-26T06:23:00.857Z,4.86
2023-04-26T06:25:28.476Z,5.13
2023-04-26T06:27:59.403Z,5.34
2023-04-26T06:30:27.520Z,5.28
2023-04-26T06:32:55.492Z,5.46
2023-04-26T06:35:25.224Z,5.07
2023-04-26T06:37:53.352Z,4.86
2023-04-26T06:40:22.064Z,5.07
2023-04-26T06:42:49.775Z,5.05
2023-04-26T06:45:18.907Z,5.04
2023-04-26T06:47:47.054Z,5.19
2023-04-26T06:50:15.454Z,5.30
2023-04-26T06:52:42.983Z,5.40
2023-04-26T06:55:11.299Z,5.42
2023-04-26T06:57:38.843Z,5.66
2023-04-26T07:00:09.542Z,5.56
2023-04-26T07:02:38.545Z,5.59
2023-04-26T07:05:07.045Z,5.54
2023-04-26T07:07:34.918Z,5.45
2023-04-26T07:10:02.447Z,5.52
2023-04-26T07:12:29.919Z,5.51
2023-04-26T07:14:58.205Z,5.88
2023-04-26T07:17:25.695Z,6.10
2023-04-26T07:19:56.135Z,6.25
2023-04-26T07:22:23.808Z,6.35
2023-04-26T07:24:51.277Z,6.54
2023-04-26T07:27:18.776Z,6.61
2023-04-26T07:29:46.313Z,6.77
2023-04-26T07:32:14.061Z,6.74
2023-04-26T07:34:41.977Z,6.66
2023-04-26T07:37:10.800Z,5.89
2023-04-26T07:39:38.262Z,5.85
2023-04-26T07:42:05.865Z,6.03
2023-04-26T07:44:33.357Z,6.05
2023-04-26T07:47:00.865Z,5.86
2023-04-26T07:49:28.358Z,6.14
2023-04-26T07:51:58.084Z,5.90
2023-04-26T07:54:26.938Z,6.21
2023-04-26T07:56:54.526Z,6.28
2023-04-26T07:59:22.054Z,6.12
2023-04-26T08:01:49.883Z,6.17
2023-04-26T08:04:19.715Z,6.14
2023-04-26T08:06:48.638Z,6.08
2023-04-26T08:09:16.238Z,6.02
2023-04-26T08:11:45.040Z,6.24
2023-04-26T08:14:12.532Z,6.11
2023-04-26T08:16:40.519Z,6.44
2023-04-26T08:19:08.076Z,6.14
2023-04-26T08:21:35.733Z,6.32
2023-04-26T08:24:03.506Z,6.61
2023-04-26T08:26:31.040Z,6.32
2023-04-26T08:29:00.041Z,6.15
2023-04-26T08:31:27.655Z,5.99
2023-04-26T08:33:55.254Z,6.22
2023-04-26T08:36:22.894Z,6.10
2023-04-26T08:38:50.391Z,6.36
2023-04-26T08:41:22.450Z,6.51
2023-04-26T08:43:50.839Z,6.35
2023-04-26T08:46:20.971Z,6.82
2023-04-26T08:48:58.172Z,7.13
2023-04-26T08:51:26.053Z,7.37
2023-04-26T08:53:54.400Z,7.17
2023-04-26T08:56:23.727Z,7.25
2023-04-26T08:58:51.979Z,7.43
2023-04-26T09:01:21.588Z,7.56
2023-04-26T09:03:49.326Z,7.64
2023-04-26T09:06:17.370Z,7.82
2023-04-26T09:08:45.203Z,7.92
2023-04-26T09:11:12.807Z,7.67
2023-04-26T09:13:40.339Z,7.81
2023-04-26T09:16:08.506Z,7.74
2023-04-26T09:18:48.494Z,7.82
2023-04-26T09:21:18.981Z,7.60
2023-04-26T09:23:58.680Z,7.56
2023-04-26T09:26:26.452Z,7.85
2023-04-26T09:29:12.493Z,7.55
2023-04-26T09:31:42.097Z,7.54
2023-04-26T09:34:11.966Z,7.77
2023-04-26T09:36:50.095Z,7.67
2023-04-26T09:39:31.312Z,7.56
2023-04-26T09:41:59.180Z,7.39
2023-04-26T09:44:27.074Z,7.32
2023-04-26T09:47:01.878Z,7.43
2023-04-26T09:49:33.065Z,8.27
2023-04-26T09:52:01.757Z,8.29
2023-04-26T09:54:43.069Z,7.72
2023-04-26T09:57:10.791Z,7.48
2023-04-26T09:59:42.999Z,7.36
2023-04-26T10:02:14.824Z,7.20
2023-04-26T10:04:45.651Z,7.29
2023-04-26T10:07:13.910Z,7.23
2023-04-26T10:09:41.798Z,7.46
2023-04-26T10:12:10.455Z,7.35
2023-04-26T10:14:38.424Z,7.38
2023-04-26T10:17:06.449Z,7.94
2023-04-26T10:19:35.212Z,7.90
2023-04-26T10:22:06.279Z,7.97
2023-04-26T10:24:35.659Z,8.07
2023-04-26T10:27:04.203Z,7.94
2023-04-26T10:30:07.701Z,7.61
2023-04-26T10:33:16.504Z,7.93
2023-04-26T10:36:06.817Z,8.10
2023-04-26T10:38:35.289Z,8.51
2023-04-26T10:41:36.122Z,8.68
2023-04-26T10:44:42.275Z,8.69
2023-04-26T10:47:22.914Z,8.31
2023-04-26T10:49:50.645Z,8.32
2023-04-26T10:52:21.448Z,8.56
2023-04-26T10:54:56.811Z,8.72
2023-04-26T10:57:25.692Z,8.77
2023-04-26T11:00:20.863Z,8.82
2023-04-26T11:02:56.085Z,8.70
2023-04-26T11:05:39.428Z,8.26
2023-04-26T11:08:10.026Z,8.15
2023-04-26T11:10:40.976Z,8.07
2023-04-26T11:13:08.521Z,7.94
2023-04-26T11:15:36.450Z,8.30
2023-04-26T11:18:04.355Z,8.58
2023-04-26T11:20:32.719Z,8.87
2023-04-26T11:23:00.377Z,9.09
2023-04-26T11:25:30.020Z,9.31
2023-04-26T11:28:01.818Z,9.39
2023-04-26T11:30:31.629Z,9.27
2023-04-26T11:33:00.005Z,9.58
2023-04-26T11:35:29.556Z,9.65
2023-04-26T11:37:59.911Z,9.77
2023-04-26T11:40:32.935Z,9.81
2023-04-26T11:43:02.390Z,9.66
2023-04-26T11:45:29.910Z,9.34
2023-04-26T11:47:58.118Z,9.03
2023-04-26T11:50:27.437Z,8.86
2023-04-26T11:52:56.609Z,8.99
2023-04-26T11:55:30.515Z,8.98
2023-04-26T11:57:59.522Z,8.86
2023-04-26T12:00:27.405Z,8.75
2023-04-26T12:02:57.216Z,8.98
2023-04-26T12:05:26.391Z,9.22
2023-04-26T12:07:56.631Z,9.27
2023-04-26T12:10:27.024Z,9.28
2023-04-26T12:12:56.707Z,9.13
2023-04-26T12:15:26.857Z,9.02
2023-04-26T12:17:59.868Z,8.96
2023-04-26T12:20:32.620Z,8.86
2023-04-26T12:23:01.364Z,8.64
2023-04-26T12:25:29.104Z,8.69
2023-04-26T12:27:57.124Z,8.79
2023-04-26T12:30:26.701Z,8.54
2023-04-26T12:33:15.538Z,8.60
2023-04-26T12:35:44.964Z,8.70
2023-04-26T12:38:13.334Z,8.82
2023-04-26T12:40:41.771Z,9.00
2023-04-26T12:43:09.624Z,8.88
2023-04-26T12:45:38.488Z,8.97
2023-04-26T12:48:06.387Z,8.98
2023-04-26T12:50:34.106Z,8.79
2023-04-26T12:53:01.763Z,8.92
2023-04-26T12:55:31.265Z,9.13
2023-04-26T12:58:00.234Z,9.45
2023-04-26T13:00:27.793Z,9.25
2023-04-26T13:02:56.781Z,9.22
2023-04-26T13:05:25.386Z,9.37
2023-04-26T13:07:52.979Z,9.23
2023-04-26T13:10:20.478Z,9.04
2023-04-26T13:12:47.997Z,8.99
2023-04-26T13:15:16.874Z,8.72
2023-04-26T13:17:45.606Z,8.70
2023-04-26T13:20:14.821Z,8.79
2023-04-26T13:22:43.276Z,8.40
2023-04-26T13:25:11.048Z,8.72
2023-04-26T13:27:38.923Z,8.93
2023-04-26T13:30:08.734Z,8.99
2023-04-26T13:32:36.498Z,9.11
2023-04-26T13:35:04.253Z,9.26
2023-04-26T13:37:33.111Z,9.11
2023-04-26T13:40:02.805Z,9.16
2023-04-26T13:42:30.288Z,9.13
2023-04-26T13:44:57.762Z,9.35
2023-04-26T13:47:25.434Z,9.25
2023-04-26T13:49:52.941Z,9.18
2023-04-26T13:52:20.610Z,9.10
2023-04-26T13:54:49.451Z,9.05
2023-04-26T13:57:17.077Z,8.97
2023-04-26T13:59:44.542Z,9.09
2023-04-26T14:02:12.450Z,8.97
2023-04-26T14:04:40.764Z,9.18
2023-04-26T14:07:11.008Z,9.40
2023-04-26T14:09:38.551Z,9.56
2023-04-26T14:12:08.862Z,9.81
2023-04-26T14:14:36.989Z,10.16
2023-04-26T14:17:04.558Z,10.38
2023-04-26T14:19:32.094Z,10.48
2023-04-26T14:21:59.744Z,10.52
2023-04-26T14:24:27.263Z,10.54
2023-04-26T14:26:54.861Z,10.53
2023-04-26T14:29:23.749Z,10.40
2023-04-26T14:31:51.528Z,10.40
2023-04-26T14:34:19.420Z,10.40
2023-04-26T14:36:47.102Z,10.41
2023-04-26T14:39:15.115Z,10.44
2023-04-26T14:41:43.264Z,10.42
2023-04-26T14:44:10.885Z,10.38
2023-04-26T14:46:39.824Z,10.41
2023-04-26T14:49:07.352Z,10.35
2023-04-26T14:51:34.865Z,10.14
2023-04-26T14:54:02.385Z,10.01
2023-04-26T14:56:33.633Z,10.09
2023-04-26T14:59:01.835Z,10.13
2023-04-26T15:01:29.445Z,10.13
2023-04-26T15:04:00.600Z,9.83
2023-04-26T15:06:30.739Z,10.00
2023-04-26T15:08:58.405Z,10.16
2023-04-26T15:11:25.898Z,10.32
2023-04-26T15:13:53.634Z,10.30
2023-04-26T15:16:21.721Z,10.20
2023-04-26T15:18:49.367Z,10.23
2023-04-26T15:21:18.731Z,10.21
2023-04-26T15:23:46.515Z,10.20
2023-04-26T15:26:14.063Z,10.19
2023-04-26T15:28:42.580Z,10.07
2023-04-26T15:31:11.195Z,10.06
2023-04-26T15:33:38.758Z,10.14
2023-04-26T15:36:06.851Z,10.26
2023-04-26T15:38:36.138Z,10.26
2023-04-26T15:41:04.205Z,10.30
2023-04-26T15:43:31.689Z,10.15
2023-04-26T15:45:59.383Z,9.82
2023-04-26T15:48:27.005Z,9.88
2023-04-26T15:50:56.556Z,9.90
2023-04-26T15:53:24.296Z,10.00
2023-04-26T15:55:53.140Z,9.92
2023-04-26T15:58:20.611Z,10.04
2023-04-26T16:00:48.136Z,10.07
2023-04-26T16:03:15.776Z,10.18
2023-04-26T16:05:43.405Z,10.17
2023-04-26T16:08:10.930Z,10.40
2023-04-26T16:10:38.660Z,10.43
2023-04-26T16:13:07.847Z,10.41
2023-04-26T16:15:35.755Z,9.99
2023-04-26T16:18:03.386Z,10.13
2023-04-26T16:20:31.437Z,10.09
2023-04-26T16:22:58.933Z,9.92
2023-04-26T16:25:26.582Z,10.00
2023-04-26T16:27:54.067Z,9.96
2023-04-26T16:30:23.143Z,9.89
2023-04-26T16:32:50.654Z,9.92
2023-04-26T16:35:18.459Z,9.82
2023-04-26T16:37:46.585Z,9.86
2023-04-26T16:40:14.572Z,9.84
2023-04-26T16:42:43.428Z,9.78
2023-04-26T16:45:13.228Z,9.58
2023-04-26T16:47:43.656Z,9.58
2023-04-26T16:50:11.712Z,9.68
2023-04-26T16:52:39.430Z,9.72
2023-04-26T16:55:08.587Z,9.87
2023-04-26T16:57:36.196Z,10.01
2023-04-26T17:00:06.012Z,9.96
2023-04-26T17:02:33.602Z,9.84
2023-04-26T17:05:03.090Z,9.81
2023-04-26T17:07:30.700Z,9.70
2023-04-26T17:09:58.191Z,9.63
2023-04-26T17:12:25.974Z,9.62
2023-04-26T17:14:53.462Z,9.38
2023-04-26T17:17:20.927Z,9.38
2023-04-26T17:19:48.376Z,9.47
2023-04-26T17:22:17.225Z,9.51
2023-04-26T17:24:44.836Z,9.52
2023-04-26T17:27:12.308Z,9.47
2023-04-26T17:29:39.794Z,9.29
2023-04-26T17:32:07.561Z,9.33
2023-04-26T17:34:35.170Z,9.37
2023-04-26T17:37:02.632Z,9.30
2023-04-26T17:39:31.646Z,9.24
2023-04-26T17:41:59.116Z,9.08
2023-04-26T17:44:26.796Z,9.04
2023-04-26T17:46:54.272Z,9.05
2023-04-26T17:49:25.472Z,9.00
2023-04-26T17:51:53.040Z,8.96
2023-04-26T17:54:20.648Z,8.98
2023-04-26T17:56:49.548Z,8.89
2023-04-26T17:59:17.013Z,8.81
2023-04-26T18:01:44.684Z,8.77
2023-04-26T18:04:12.512Z,8.61
2023-04-26T18:06:40.691Z,8.54
2023-04-26T18:09:08.526Z,8.52
2023-04-26T18:11:36.178Z,8.56
2023-04-26T18:14:04.987Z,8.57
2023-04-26T18:16:32.859Z,8.59
2023-04-26T18:19:00.598Z,8.53
2023-04-26T18:21:29.514Z,8.52
2023-04-26T18:23:57.115Z,8.47
2023-04-26T18:26:24.686Z,8.42
2023-04-26T18:28:52.189Z,8.40
2023-04-26T18:31:22.148Z,8.41
2023-04-26T18:33:49.989Z,8.38
2023-04-26T18:36:17.767Z,8.42
2023-04-26T18:38:45.494Z,8.44
2023-04-26T18:41:12.972Z,8.43
2023-04-26T18:43:40.601Z,8.42
2023-04-26T18:46:08.111Z,8.40
2023-04-26T18:48:36.925Z,8.33
2023-04-26T18:51:04.764Z,8.31
2023-04-26T18:53:32.262Z,8.31
2023-04-26T18:55:59.892Z,8.32
2023-04-26T18:58:27.352Z,8.30
2023-04-26T19:00:55.234Z,8.24
2023-04-26T19:03:25.232Z,8.18
2023-04-26T19:05:54.506Z,8.18
2023-04-26T19:08:21.983Z,8.09
2023-04-26T19:10:49.866Z,8.03
2023-04-26T19:13:18.615Z,7.98
2023-04-26T19:15:46.572Z,7.94
2023-04-26T19:18:14.168Z,7.94
2023-04-26T19:20:41.811Z,7.92
2023-04-26T19:23:12.443Z,7.86
2023-04-26T19:25:40.099Z,7.82
2023-04-26T19:28:07.757Z,7.86
2023-04-26T19:30:36.320Z,7.86
2023-04-26T19:33:03.984Z,7.91
2023-04-26T19:35:31.545Z,7.93
2023-04-26T19:37:59.056Z,7.77
2023-04-26T19:40:29.356Z,7.79
2023-04-26T19:42:57.402Z,7.74
2023-04-26T19:45:25.049Z,7.61
2023-04-26T19:47:52.583Z,7.41
2023-04-26T19:50:20.307Z,7.47
2023-04-26T19:52:48.017Z,7.49
2023-04-26T19:55:15.650Z,7.38
2023-04-26T19:57:44.764Z,7.39
2023-04-26T20:00:13.316Z,7.35
2023-04-26T20:02:40.971Z,7.39
2023-04-26T20:05:10.219Z,7.44
2023-04-26T20:07:37.742Z,7.28
2023-04-26T20:10:06.174Z,7.34
2023-04-26T20:12:34.352Z,7.27
2023-04-26T20:15:03.447Z,7.18
2023-04-26T20:17:30.950Z,7.13
2023-04-26T20:19:58.449Z,7.12
2023-04-26T20:22:26.444Z,7.11
2023-04-26T20:24:53.978Z,7.45
2023-04-26T20:27:21.490Z,7.50
2023-04-26T20:29:49.008Z,7.43
2023-04-26T20:32:18.018Z,7.23
2023-04-26T20:34:45.531Z,7.09
2023-04-26T20:37:13.662Z,6.96
2023-04-26T20:39:41.673Z,6.80
2023-04-26T20:42:09.607Z,6.31
2023-04-26T20:44:37.173Z,6.11
2023-04-26T20:47:05.052Z,5.69
2023-04-26T20:49:33.857Z,5.85
2023-04-26T20:52:01.338Z,5.72
2023-04-26T20:54:28.869Z,5.60
2023-04-26T20:56:56.477Z,5.47
2023-04-26T20:59:25.242Z,5.62
2023-04-26T21:01:53.815Z,5.43
2023-04-26T21:04:21.690Z,5.42
2023-04-26T21:06:51.090Z,5.60
2023-04-26T21:09:18.641Z,5.53
2023-04-26T21:11:46.185Z,5.71
2023-04-26T21:14:14.553Z,5.76
2023-04-26T21:16:42.170Z,5.67
2023-04-26T21:19:09.827Z,5.20
2023-04-26T21:21:37.489Z,5.33
2023-04-26T21:24:06.662Z,5.36
2023-04-26T21:26:34.153Z,5.57
2023-04-26T21:29:01.744Z,5.64
2023-04-26T21:31:29.294Z,5.80
2023-04-26T21:33:56.867Z,5.71
2023-04-26T21:36:24.523Z,5.49
2023-04-26T21:38:52.738Z,5.34
2023-04-26T21:41:22.603Z,5.40
2023-04-26T21:43:50.737Z,5.35
2023-04-26T21:46:18.244Z,5.49
2023-04-26T21:48:45.812Z,5.48
2023-04-26T21:51:13.307Z,5.41
2023-04-26T21:53:41.011Z,5.31
2023-04-26T21:56:08.850Z,5.39
2023-04-26T21:58:37.695Z,5.37
2023-04-26T22:01:09.799Z,5.11
2023-04-26T22:03:37.705Z,5.08
2023-04-26T22:06:06.189Z,4.96
2023-04-26T22:08:33.809Z,5.10
2023-04-26T22:11:01.731Z,4.94
2023-04-26T22:13:29.278Z,4.96
2023-04-26T22:15:58.180Z,4.87
2023-04-26T22:18:26.419Z,4.71
2023-04-26T22:20:54.469Z,4.54
2023-04-26T22:23:21.963Z,4.30
2023-04-26T22:25:49.462Z,4.31
2023-04-26T22:28:17.003Z,4.29
2023-04-26T22:30:44.758Z,4.33
2023-04-26T22:33:13.727Z,4.49
2023-04-26T22:35:41.586Z,4.47
2023-04-26T22:38:09.148Z,4.41
2023-04-26T22:40:36.678Z,4.44
2023-04-26T22:43:04.281Z,4.49
2023-04-26T22:45:31.823Z,4.65
2023-04-26T22:47:59.474Z,4.84
2023-04-26T22:50:28.347Z,4.92
2023-04-26T22:52:56.009Z,4.90
2023-04-26T22:55:23.668Z,4.72
2023-04-26T22:57:51.295Z,4.91
2023-04-26T23:00:19.919Z,4.96
2023-04-26T23:02:47.539Z,4.88
2023-04-26T23:05:15.075Z,4.97
2023-04-26T23:07:43.940Z,4.90
2023-04-26T23:10:11.982Z,4.49
2023-04-26T23:12:40.655Z,4.73
2023-04-26T23:15:09.118Z,4.63
2023-04-26T23:17:36.851Z,4.79
2023-04-26T23:20:11.933Z,4.64
2023-04-26T23:22:40.367Z,4.69
2023-04-26T23:25:10.132Z,4.63
2023-04-26T23:27:37.914Z,4.54
2023-04-26T23:30:06.311Z,4.37
2023-04-26T23:32:33.999Z,4.50
2023-04-26T23:35:01.598Z,4.41
2023-04-26T23:37:30.077Z,4.49
2023-04-26T23:39:57.600Z,4.11
2023-04-26T23:42:26.471Z,4.22
2023-04-26T23:44:53.962Z,4.32
2023-04-26T23:47:21.450Z,4.45
2023-04-26T23:49:48.906Z,4.47
2023-04-26T23:52:16.388Z,4.52
2023-04-26T23:54:43.872Z,4.50
2023-04-26T23:57:11.806Z,4.32
2023-04-26T23:59:40.609Z,4.40
